Time;durP1;ratioP1;P1;durP2;ratioP2;P2;SDS_P1;SDS_P2;PMS_P1;PMS_P2;Temp;Humidity;BMP_temperature;BMP_pressure;BME280_temperature;BME280_humidity;BME280_pressure;Samples;Min_cycle;Max_cycle;Signal;HPM_P1;HPM_P2
2020/12/31 00:02:17;;;;;;;47.80;30.00;;;;;;;3.02;88.33;95800.73;1770484;80;21637;-88
2020/12/31 00:04:44;;;;;;;44.42;26.80;;;;;;;3.01;88.41;95802.30;1770275;80;21134;-88
2020/12/31 00:07:12;;;;;;;48.02;28.85;;;;;;;3.01;88.64;95800.98;1770607;80;21648;-88
2020/12/31 00:09:39;;;;;;;39.05;24.72;;;;;;;2.93;88.65;95801.70;1770521;80;21134;-89
2020/12/31 00:12:07;;;;;;;47.70;27.77;;;;;;;2.94;88.80;95796.73;1770412;80;21265;-88
2020/12/31 00:14:35;;;;;;;45.80;27.48;;;;;;;2.94;88.92;95797.25;1770526;80;21281;-89
2020/12/31 00:17:02;;;;;;;63.25;36.38;;;;;;;2.91;89.10;95794.63;1770578;80;21285;-88
2020/12/31 00:19:29;;;;;;;58.58;34.30;;;;;;;2.88;89.03;95800.36;1770793;79;21650;-89
2020/12/31 00:21:56;;;;;;;61.65;33.75;;;;;;;2.89;89.20;95806.38;1770402;80;21278;-89
2020/12/31 00:24:23;;;;;;;51.25;30.68;;;;;;;2.80;89.25;95809.96;1770400;80;21166;-89
2020/12/31 00:26:50;;;;;;;54.67;30.48;;;;;;;2.73;89.27;95815.93;1770368;80;21502;-89
2020/12/31 00:29:18;;;;;;;60.52;31.90;;;;;;;2.77;89.29;95817.01;1770332;80;21678;-89
2020/12/31 00:31:45;;;;;;;56.98;33.02;;;;;;;2.82;89.34;95818.38;1770349;81;21150;-88
2020/12/31 00:34:13;;;;;;;52.73;32.40;;;;;;;2.81;89.31;95815.47;1770342;80;21277;-89
2020/12/31 00:36:40;;;;;;;49.53;30.32;;;;;;;2.78;89.46;95812.56;1770463;80;21514;-88
2020/12/31 00:39:08;;;;;;;43.73;26.93;;;;;;;2.74;89.61;95805.73;1770318;81;21305;-89
2020/12/31 00:41:35;;;;;;;38.92;24.72;;;;;;;2.75;89.62;95804.69;1770462;80;21618;-89
2020/12/31 00:44:02;;;;;;;44.42;26.80;;;;;;;2.79;89.58;95808.91;1770333;80;21115;-89
2020/12/31 00:46:29;;;;;;;51.80;29.32;;;;;;;2.82;89.56;95813.14;1770267;80;21119;-89
2020/12/31 00:48:56;;;;;;;57.38;32.38;;;;;;;2.85;89.47;95815.27;1770948;79;21528;-88
2020/12/31 00:51:24;;;;;;;47.03;29.95;;;;;;;2.88;89.40;95816.59;1770461;80;21107;-89
2020/12/31 00:53:51;;;;;;;50.80;29.95;;;;;;;2.86;89.40;95817.36;1770524;80;21099;-88
2020/12/31 00:56:18;;;;;;;51.15;31.17;;;;;;;2.84;89.36;95818.13;1770558;81;21514;-88
2020/12/31 00:58:45;;;;;;;50.03;29.85;;;;;;;2.86;89.34;95818.15;1770538;80;21266;-89
2020/12/31 01:01:12;;;;;;;47.45;28.73;;;;;;;2.89;89.30;95811.63;1770432;80;21146;-89
2020/12/31 01:03:40;;;;;;;43.15;26.23;;;;;;;2.87;89.17;95816.32;1770677;81;21511;-88
2020/12/31 01:06:07;;;;;;;47.70;28.45;;;;;;;2.85;89.22;95824.94;1770471;80;21273;-88
2020/12/31 01:08:34;;;;;;;53.80;31.80;;;;;;;2.74;89.34;95831.91;1770556;81;21679;-89
2020/12/31 01:11:01;;;;;;;49.73;29.07;;;;;;;2.63;89.55;95844.09;1770563;80;21281;-89
2020/12/31 01:13:28;;;;;;;45.73;29.50;;;;;;;2.63;89.69;95851.16;1770527;80;21289;-89
2020/12/31 01:15:55;;;;;;;51.80;30.75;;;;;;;2.62;89.53;95850.88;1770500;80;21657;-88
2020/12/31 01:18:23;;;;;;;45.70;28.17;;;;;;;2.56;89.41;95850.05;1770436;81;21176;-89
2020/12/31 01:20:50;;;;;;;43.73;25.30;;;;;;;2.54;89.47;95853.95;1770969;79;21272;-89
2020/12/31 01:23:17;;;;;;;39.63;25.15;;;;;;;2.54;89.51;95851.34;1770581;80;21160;-88
2020/12/31 01:25:44;;;;;;;39.70;25.82;;;;;;;2.56;89.60;95846.13;1770514;80;21633;-88
2020/12/31 01:28:11;;;;;;;40.35;23.90;;;;;;;2.59;89.64;95839.09;1770725;80;21147;-88
2020/12/31 01:30:38;;;;;;;37.40;23.12;;;;;;;2.60;89.62;95840.66;1770403;80;21282;-88
2020/12/31 01:33:06;;;;;;;40.12;23.47;;;;;;;2.64;89.66;95843.57;1770673;80;21281;-88
2020/12/31 01:35:33;;;;;;;37.40;23.45;;;;;;;2.68;89.60;95845.98;1770459;80;21281;-88
2020/12/31 01:38:00;;;;;;;31.93;18.65;;;;;;;2.68;89.44;95847.30;1770707;80;21135;-88
2020/12/31 01:40:27;;;;;;;26.80;17.67;;;;;;;2.66;89.19;95848.03;1770444;80;21138;-88
2020/12/31 01:42:54;;;;;;;27.00;16.57;;;;;;;2.54;89.03;95841.66;1770540;80;21645;-89
2020/12/31 01:45:21;;;;;;;21.42;13.43;;;;;;;2.44;88.96;95836.83;1770304;80;21177;-89
2020/12/31 01:47:49;;;;;;;20.35;12.07;;;;;;;2.29;88.84;95829.09;1769621;81;21120;-88
2020/12/31 01:50:18;;;;;;;17.23;10.43;;;;;;;2.29;89.17;95830.40;1770218;79;21546;-89
2020/12/31 01:52:47;;;;;;;17.92;11.03;;;;;;;2.30;89.19;95834.59;1769661;81;21138;-88
2020/12/31 01:55:14;;;;;;;20.08;10.75;;;;;;;2.21;89.06;95832.64;1769743;81;21154;-89
2020/12/31 01:57:42;;;;;;;18.57;10.43;;;;;;;2.11;89.12;95828.07;1769678;81;21499;-89
2020/12/31 02:00:10;;;;;;;16.55;9.80;;;;;;;2.06;89.30;95834.56;1769725;81;21167;-88
2020/12/31 02:02:37;;;;;;;18.90;11.43;;;;;;;1.98;89.43;95846.24;1769734;80;21520;-88
2020/12/31 02:05:04;;;;;;;22.65;13.62;;;;;;;1.91;89.68;95856.06;1769641;81;21499;-88
2020/12/31 02:07:32;;;;;;;22.02;14.40;;;;;;;1.87;89.76;95862.03;1769724;80;21134;-88
2020/12/31 02:09:59;;;;;;;21.70;13.35;;;;;;;1.84;89.68;95862.00;1769820;81;21107;-89
2020/12/31 02:12:26;;;;;;;20.60;12.10;;;;;;;1.85;89.66;95858.88;1769576;81;21122;-89
2020/12/31 02:14:55;;;;;;;20.12;12.88;;;;;;;1.89;89.67;95864.67;1769594;80;21281;-88
2020/12/31 02:17:23;;;;;;;21.75;13.35;;;;;;;1.92;89.63;95869.41;1769570;81;21136;-88
2020/12/31 02:19:50;;;;;;;22.65;14.25;;;;;;;1.93;89.45;95872.30;1770165;79;21503;-88
2020/12/31 02:22:17;;;;;;;17.67;12.40;;;;;;;1.82;89.43;95871.09;1769607;80;21134;-88
2020/12/31 02:24:44;;;;;;;16.97;10.35;;;;;;;1.76;89.55;95862.41;1769810;80;21147;-88
2020/12/31 02:27:11;;;;;;;17.60;10.75;;;;;;;1.76;89.63;95861.88;1769648;81;21507;-89
2020/12/31 02:29:38;;;;;;;20.00;12.25;;;;;;;1.81;89.80;95865.07;1769753;80;21139;-88
2020/12/31 02:32:06;;;;;;;20.32;11.80;;;;;;;1.84;89.94;95868.53;1769638;81;21507;-88
2020/12/31 02:34:33;;;;;;;21.93;12.33;;;;;;;1.87;89.82;95871.17;1769615;81;21160;-88
2020/12/31 02:37:00;;;;;;;21.42;11.95;;;;;;;1.83;89.61;95872.67;1769571;81;21166;-88
2020/12/31 02:39:27;;;;;;;19.17;12.60;;;;;;;1.78;89.59;95874.19;1769550;81;21147;-89
2020/12/31 02:41:54;;;;;;;17.15;11.65;;;;;;;1.77;89.75;95877.84;1769561;81;21265;-88
2020/12/31 02:44:21;;;;;;;17.70;10.78;;;;;;;1.81;89.89;95878.14;1769634;81;21495;-88
2020/12/31 02:46:48;;;;;;;20.05;12.18;;;;;;;1.89;90.04;95875.13;1769495;81;21182;-89
2020/12/31 02:49:15;;;;;;;19.45;11.65;;;;;;;1.97;90.17;95876.52;1770078;79;21130;-88
2020/12/31 02:51:42;;;;;;;19.48;11.70;;;;;;;2.03;90.18;95863.29;1769665;81;21100;-88
2020/12/31 02:54:09;;;;;;;18.10;11.35;;;;;;;2.09;90.09;95856.29;1752312;81;21138;-88
2020/12/31 02:56:36;;;;;;;19.80;11.70;;;;;;;2.14;90.06;95860.30;1769636;80;21099;-88
2020/12/31 02:59:04;;;;;;;20.55;11.57;;;;;;;2.17;89.95;95863.72;1776203;79;21190;-88
2020/12/31 03:01:31;;;;;;;18.30;10.88;;;;;;;2.19;89.80;95866.88;1818847;79;21126;-89
2020/12/31 03:03:59;;;;;;;14.80;8.30;;;;;;;2.19;89.60;95869.49;1818747;79;21645;-88
2020/12/31 03:06:26;;;;;;;16.62;9.10;;;;;;;2.14;89.37;95857.67;1818649;79;21103;-89
2020/12/31 03:08:53;;;;;;;16.62;9.90;;;;;;;2.07;89.22;95851.30;1818804;79;21183;-88
2020/12/31 03:11:25;;;;;;;16.05;10.18;;;;;;;2.11;89.30;95846.89;1818593;79;21127;-88
2020/12/31 03:13:53;;;;;;;14.53;8.95;;;;;;;2.16;89.37;95848.28;1818713;79;21561;-89
2020/12/31 03:16:21;;;;;;;18.90;10.95;;;;;;;2.18;89.29;95846.20;1818582;79;21123;-88
2020/12/31 03:18:48;;;;;;;18.12;9.78;;;;;;;2.18;89.22;95844.90;1818907;79;21152;-88
2020/12/31 03:21:17;;;;;;;19.25;9.40;;;;;;;2.07;88.94;95855.75;1770495;79;21132;-88
2020/12/31 03:23:44;;;;;;;25.75;13.53;;;;;;;1.93;88.91;95857.13;1769636;81;21535;-88
2020/12/31 03:26:11;;;;;;;22.35;13.62;;;;;;;1.85;88.96;95857.56;1769510;81;21147;-89
2020/12/31 03:28:39;;;;;;;24.67;14.55;;;;;;;1.83;89.11;95862.22;1769612;81;21143;-88
2020/12/31 03:31:06;;;;;;;23.05;14.43;;;;;;;1.81;89.23;95860.36;1769485;81;21287;-88
2020/12/31 03:33:33;;;;;;;20.70;12.03;;;;;;;1.82;89.35;95854.89;1769668;81;21562;-88
2020/12/31 03:36:00;;;;;;;18.27;10.23;;;;;;;1.88;89.46;95859.69;1769604;81;21138;-88
2020/12/31 03:38:27;;;;;;;18.62;10.43;;;;;;;1.90;89.46;95860.23;1769528;80;21112;-88
2020/12/31 03:40:54;;;;;;;16.90;10.50;;;;;;;1.92;89.50;95856.34;1769555;80;21154;-88
2020/12/31 03:43:22;;;;;;;20.08;10.00;;;;;;;1.98;89.56;95857.22;1769515;80;21147;-88
2020/12/31 03:45:49;;;;;;;15.98;8.90;;;;;;;2.04;89.57;95854.92;1769589;81;21148;-88
2020/12/31 03:48:16;;;;;;;15.18;8.28;;;;;;;2.07;89.48;95858.36;1770315;80;21562;-88
2020/12/31 03:50:44;;;;;;;17.60;8.88;;;;;;;2.02;89.15;95857.00;1771035;79;21301;-88
2020/12/31 03:53:12;;;;;;;15.30;8.48;;;;;;;1.89;88.98;95850.30;1770360;80;21139;-88
2020/12/31 03:55:39;;;;;;;12.55;7.50;;;;;;;1.82;89.02;95851.48;1770436;81;21289;-88
2020/12/31 03:58:06;;;;;;;14.60;8.78;;;;;;;1.79;89.05;95852.77;1770366;81;21300;-88
2020/12/31 04:00:33;;;;;;;13.62;8.38;;;;;;;1.76;89.12;95850.13;1770604;81;21285;-88
2020/12/31 04:03:00;;;;;;;12.90;7.47;;;;;;;1.75;89.24;95849.06;1770376;80;21636;-88
2020/12/31 04:05:27;;;;;;;10.43;6.53;;;;;;;1.76;89.37;95849.34;1770656;80;21277;-88
2020/12/31 04:07:55;;;;;;;10.10;6.42;;;;;;;1.73;89.33;95858.45;1770281;80;21107;-88
2020/12/31 04:10:22;;;;;;;10.63;6.87;;;;;;;1.71;89.45;95851.89;1770433;80;21301;-88
2020/12/31 04:12:49;;;;;;;14.00;7.50;;;;;;;1.72;89.44;95853.47;1770426;81;21261;-88
2020/12/31 04:15:16;;;;;;;15.18;8.60;;;;;;;1.74;89.53;95844.35;1770659;80;21166;-88
2020/12/31 04:17:43;;;;;;;14.00;7.78;;;;;;;1.75;89.33;95852.98;1770422;80;21289;-88
2020/12/31 04:20:10;;;;;;;13.55;7.92;;;;;;;1.73;89.26;95855.05;1771021;79;21111;-88
2020/12/31 04:22:37;;;;;;;10.70;5.78;;;;;;;1.76;89.19;95859.79;1770461;80;21273;-88
2020/12/31 04:25:04;;;;;;;12.43;6.60;;;;;;;1.77;89.11;95860.06;1770510;81;21137;-88
2020/12/31 04:27:32;;;;;;;9.80;5.67;;;;;;;1.78;89.06;95860.33;1770562;80;21637;-88
2020/12/31 04:29:59;;;;;;;9.60;4.97;;;;;;;1.81;89.01;95861.67;1770601;80;21618;-88
2020/12/31 04:32:26;;;;;;;12.75;5.45;;;;;;;1.73;88.77;95863.67;1770480;80;21277;-88
2020/12/31 04:34:53;;;;;;;13.28;6.33;;;;;;;1.62;88.62;95863.25;1770818;81;21163;-88
2020/12/31 04:37:20;;;;;;;11.53;7.28;;;;;;;1.57;88.72;95872.33;1770480;80;21289;-88
2020/12/31 04:39:48;;;;;;;13.18;6.45;;;;;;;1.57;88.91;95874.95;1770545;80;21662;-88
2020/12/31 04:42:15;;;;;;;11.30;6.08;;;;;;;1.60;89.07;95867.93;1770705;81;21139;-88
2020/12/31 04:44:43;;;;;;;11.63;6.53;;;;;;;1.66;89.10;95876.10;1770592;80;21285;-88
2020/12/31 04:47:20;;;;;;;15.18;6.85;;;;;;;1.71;89.12;95870.97;1770450;80;21175;-88
2020/12/31 04:49:53;;;;;;;15.85;9.90;;;;;;;1.72;89.10;95872.55;1770994;79;21281;-88
2020/12/31 04:52:20;;;;;;;16.40;8.83;;;;;;;1.73;89.02;95874.64;1770497;80;21258;-88
2020/12/31 04:54:48;;;;;;;11.93;6.87;;;;;;;1.62;88.97;95875.01;1770582;80;21132;-88
2020/12/31 04:57:15;;;;;;;14.90;8.60;;;;;;;1.56;88.93;95869.45;1770545;81;21693;-88
2020/12/31 04:59:42;;;;;;;17.82;9.63;;;;;;;1.56;89.14;95870.75;1770464;80;21270;-88
2020/12/31 05:02:10;;;;;;;18.27;11.55;;;;;;;1.63;89.41;95875.28;1770746;80;21107;-88
2020/12/31 05:04:39;;;;;;;18.62;12.85;;;;;;;1.69;89.53;95878.75;1770486;81;21281;-88
2020/12/31 05:07:08;;;;;;;20.60;12.13;;;;;;;1.70;89.34;95880.36;1770445;80;21107;-88
2020/12/31 05:09:35;;;;;;;21.87;17.65;;;;;;;1.60;89.11;95885.42;1770433;80;21315;-88
2020/12/31 05:12:03;;;;;;;13.08;8.90;;;;;;;1.49;88.96;95885.78;1770603;80;21626;-88
2020/12/31 05:14:38;;;;;;;10.50;7.15;;;;;;;1.38;88.96;95878.81;1770578;80;21134;-88
2020/12/31 05:17:21;;;;;;;14.80;9.70;;;;;;;1.38;89.13;95881.42;1770508;80;21253;-88
2020/12/31 05:19:48;;;;;;;16.15;8.60;;;;;;;1.43;89.31;95883.62;1771101;79;21277;-89
2020/12/31 05:22:18;;;;;;;14.28;8.23;;;;;;;1.48;89.35;95883.69;1770514;80;21273;-89
2020/12/31 05:24:51;;;;;;;21.57;10.68;;;;;;;1.48;89.25;95894.64;1770906;80;21304;-89
2020/12/31 05:27:23;;;;;;;15.43;9.58;;;;;;;1.42;89.20;95893.79;1770475;80;21254;-89
2020/12/31 05:30:03;;;;;;;18.65;10.38;;;;;;;1.42;89.35;95896.92;1770448;80;21269;-89
2020/12/31 05:32:32;;;;;;;;;;;;;;;1.40;89.43;95894.52;1773145;80;21491;-89
2020/12/31 05:35:01;;;;;;;13.60;8.43;;;;;;;1.41;89.59;95900.05;1770511;80;20370;-89
2020/12/31 05:37:30;;;;;;;16.15;8.75;;;;;;;1.42;89.63;95896.40;1770405;80;21301;-88
2020/12/31 05:40:11;;;;;;;13.58;7.20;;;;;;;1.45;89.67;95898.53;1771027;80;21164;-89
2020/12/31 05:42:42;;;;;;;13.60;7.45;;;;;;;1.47;89.73;95895.16;1770674;81;21131;-89
2020/12/31 05:45:17;;;;;;;12.73;6.65;;;;;;;1.47;89.69;95891.25;1770808;80;21269;-89
2020/12/31 05:47:51;;;;;;;13.75;7.37;;;;;;;1.45;89.70;95889.91;1770355;80;21163;-89
2020/12/31 05:50:25;;;;;;;12.00;8.08;;;;;;;1.44;89.70;95892.24;1771043;79;21088;-88
2020/12/31 05:52:54;;;;;;;14.55;7.35;;;;;;;1.45;89.74;95882.86;1770441;80;21261;-89
2020/12/31 05:55:24;;;;;;;17.60;9.00;;;;;;;1.47;89.81;95886.54;1770607;80;21135;-89
2020/12/31 05:57:56;;;;;;;8.95;5.08;;;;;;;1.49;89.78;95896.23;1770534;80;21630;-89
2020/12/31 06:00:30;;;;;;;11.03;6.53;;;;;;;1.49;89.73;95894.92;1770512;80;21285;-89
2020/12/31 06:03:00;;;;;;;10.43;5.83;;;;;;;1.49;89.67;95895.71;1770422;80;21237;-88
2020/12/31 06:05:29;;;;;;;10.93;6.40;;;;;;;1.43;89.55;95895.88;1770465;80;21258;-89
2020/12/31 06:08:00;;;;;;;15.20;7.22;;;;;;;1.34;89.49;95899.39;1770620;81;21158;-89
2020/12/31 06:10:31;;;;;;;18.17;11.65;;;;;;;1.26;89.64;95907.61;1770469;81;21277;-88
2020/12/31 06:13:06;;;;;;;21.37;13.75;;;;;;;1.16;89.93;95903.55;1770453;80;21249;-88
2020/12/31 06:15:37;;;;;;;17.07;9.53;;;;;;;1.07;90.01;95899.72;1770561;81;21693;-89
2020/12/31 06:18:07;;;;;;;11.48;6.83;;;;;;;1.01;89.88;95898.86;1770511;81;21486;-88
2020/12/31 06:20:37;;;;;;;9.28;5.25;;;;;;;1.02;89.82;95905.66;1771135;79;21471;-89
2020/12/31 06:23:12;;;;;;;11.95;6.08;;;;;;;1.01;89.62;95902.77;1770623;80;21127;-89
2020/12/31 06:25:46;;;;;;;12.47;6.80;;;;;;;0.98;89.38;95908.44;1770556;80;21625;-89
2020/12/31 06:28:22;;;;;;;15.88;9.63;;;;;;;0.96;89.14;95910.49;1770340;80;21188;-88
2020/12/31 06:30:53;;;;;;;14.03;8.33;;;;;;;0.92;88.97;95914.61;1770413;81;21297;-88
2020/12/31 06:33:26;;;;;;;14.60;7.58;;;;;;;0.91;88.88;95912.23;1770805;81;21127;-88
2020/12/31 06:35:57;;;;;;;15.08;7.65;;;;;;;0.93;88.96;95918.00;1765533;81;21151;-88
2020/12/31 06:38:47;;;;;;;13.45;8.30;;;;;;;0.98;89.04;95912.34;1770288;80;21174;-88
2020/12/31 06:41:38;;;;;;;13.05;7.30;;;;;;;1.06;89.17;95917.20;1770253;80;21519;-88
2020/12/31 06:44:14;;;;;;;14.35;7.30;;;;;;;1.15;89.20;95916.32;1770509;80;21273;-88
2020/12/31 06:46:45;;;;;;;13.58;7.92;;;;;;;1.21;89.08;95919.28;1770283;80;21277;-88
2020/12/31 06:49:14;;;;;;;16.85;9.98;;;;;;;1.22;89.03;95929.20;1770206;79;21167;-88
2020/12/31 06:51:42;;;;;;;17.42;10.50;;;;;;;1.28;89.10;95929.08;1769669;81;21495;-88
2020/12/31 06:54:11;;;;;;;21.73;12.33;;;;;;;1.34;89.19;95932.03;1769598;80;21503;-88
2020/12/31 06:56:49;;;;;;;23.20;13.13;;;;;;;1.42;89.19;95925.64;1769806;81;21116;-88
2020/12/31 06:59:36;;;;;;;22.90;14.50;;;;;;;1.45;89.23;95930.39;1769642;81;21501;-87
2020/12/31 07:02:13;;;;;;;25.97;15.20;;;;;;;1.52;89.29;95925.78;1769724;81;21080;-88
2020/12/31 07:04:40;;;;;;;25.23;15.35;;;;;;;1.57;89.31;95934.23;1763695;81;21526;-88
2020/12/31 07:07:28;;;;;;;31.00;18.52;;;;;;;1.61;89.28;95934.03;1769651;80;21139;-88
2020/12/31 07:10:02;;;;;;;27.82;17.55;;;;;;;1.64;89.28;95938.77;1769587;81;21527;-88
2020/12/31 07:12:45;;;;;;;39.35;21.20;;;;;;;1.70;89.34;95941.76;1769664;80;21088;-88
2020/12/31 07:15:11;;;;;;;38.08;19.80;;;;;;;1.72;89.37;95933.95;1769316;81;21139;-88
2020/12/31 07:17:44;;;;;;;41.97;24.40;;;;;;;1.79;89.43;95937.69;1769746;81;21080;-88
2020/12/31 07:20:19;;;;;;;43.38;22.30;;;;;;;1.83;89.47;95939.30;1770126;79;21100;-89
2020/12/31 07:22:51;;;;;;;31.12;15.98;;;;;;;1.84;89.46;95939.61;1769673;80;21120;-88
2020/12/31 07:25:21;;;;;;;28.98;16.93;;;;;;;1.71;89.13;95940.72;1769242;81;21392;-88
2020/12/31 07:27:49;;;;;;;31.90;16.52;;;;;;;1.62;89.02;95942.93;1769531;81;21159;-88
2020/12/31 07:30:22;;;;;;;34.58;19.35;;;;;;;1.50;88.83;95946.13;1769479;81;21135;-88
2020/12/31 07:33:05;;;;;;;35.20;19.20;;;;;;;1.33;88.82;95943.52;1769656;80;21119;-88
2020/12/31 07:35:49;;;;;;;38.42;20.27;;;;;;;1.28;89.04;95946.05;1769668;80;21507;-88
2020/12/31 07:38:18;;;;;;;42.35;21.70;;;;;;;1.35;89.33;95948.49;1770001;79;21261;-88
2020/12/31 07:40:53;;;;;;;42.95;22.80;;;;;;;1.45;89.45;95949.46;1769663;81;21104;-88
2020/12/31 07:43:27;;;;;;;42.80;23.52;;;;;;;1.48;89.54;95945.06;1769612;81;21503;-88
2020/12/31 07:45:57;;;;;;;41.28;22.45;;;;;;;1.55;89.62;95946.72;1769611;81;21107;-88
2020/12/31 07:48:27;;;;;;;48.42;26.45;;;;;;;1.59;89.70;95943.41;1769460;80;21124;-88
2020/12/31 07:51:01;;;;;;;52.25;28.60;;;;;;;1.61;89.69;95943.96;1770166;79;21150;-88
2020/12/31 07:53:29;;;;;;;47.75;26.00;;;;;;;1.62;89.71;95943.45;1769297;81;21147;-88
2020/12/31 07:55:57;;;;;;;55.28;28.80;;;;;;;1.65;89.77;95946.88;1769543;80;21526;-88
2020/12/31 07:58:29;;;;;;;56.05;31.95;;;;;;;1.69;89.87;95946.19;1769716;81;21155;-88
2020/12/31 08:01:03;;;;;;;45.63;24.12;;;;;;;1.74;89.93;95955.41;1769614;81;21131;-88
2020/12/31 08:03:30;;;;;;;38.67;22.17;;;;;;;1.67;89.93;95959.98;1769502;81;21150;-88
2020/12/31 08:06:03;;;;;;;48.92;27.60;;;;;;;1.59;90.05;95964.31;1769567;80;21514;-88
2020/12/31 08:08:31;;;;;;;45.33;27.35;;;;;;;1.50;90.18;95965.72;1769584;81;21153;-88
2020/12/31 08:10:58;;;;;;;44.00;25.80;;;;;;;1.47;90.33;95967.50;1769615;80;21138;-88
2020/12/31 08:13:25;;;;;;;49.90;30.05;;;;;;;1.48;90.48;95967.27;1752426;81;21108;-88
2020/12/31 08:15:55;;;;;;;54.03;31.80;;;;;;;1.49;90.56;95968.05;1769409;81;21131;-88
2020/12/31 08:18:23;;;;;;;61.37;32.58;;;;;;;1.45;90.64;95969.56;1769464;81;21148;-88
2020/12/31 08:20:52;;;;;;;54.38;30.00;;;;;;;1.45;90.83;95970.88;1770026;79;21213;-88
2020/12/31 08:23:39;;;;;;;43.83;24.98;;;;;;;1.41;90.97;95975.78;1752183;81;21124;-88
2020/12/31 08:26:09;;;;;;;42.03;26.42;;;;;;;1.39;91.24;95977.81;1768987;81;21649;-89
2020/12/31 08:28:38;;;;;;;51.30;28.42;;;;;;;1.35;91.39;95987.15;1769720;81;21164;-89
2020/12/31 08:31:16;;;;;;;52.85;28.83;;;;;;;1.35;91.45;95985.05;1769464;81;21135;-89
2020/12/31 08:33:45;;;;;;;49.83;28.20;;;;;;;1.39;91.64;95985.64;1769581;81;21183;-88
2020/12/31 08:36:26;;;;;;;50.03;26.12;;;;;;;1.44;91.68;95988.36;1769532;81;21139;-88
2020/12/31 08:38:54;;;;;;;51.33;28.45;;;;;;;1.46;91.75;95987.61;1769661;81;21135;-89
2020/12/31 08:41:22;;;;;;;45.25;26.12;;;;;;;1.51;91.85;95995.24;1769486;81;21123;-89
2020/12/31 08:43:52;;;;;;;42.65;23.45;;;;;;;1.54;91.83;95991.64;1769667;80;21181;-88
2020/12/31 08:46:22;;;;;;;45.30;26.33;;;;;;;1.53;91.88;95988.75;1769436;81;21131;-89
2020/12/31 08:48:57;;;;;;;40.95;22.15;;;;;;;1.51;91.85;95998.64;1770010;81;21135;-88
2020/12/31 08:51:30;;;;;;;42.80;24.30;;;;;;;1.49;91.90;95990.25;1770449;80;21104;-88
2020/12/31 08:54:00;;;;;;;41.55;24.43;;;;;;;1.37;92.03;95980.38;1770405;80;21629;-88
2020/12/31 08:56:34;;;;;;;27.40;16.95;;;;;;;1.32;92.04;95988.92;1770528;80;21277;-89
2020/12/31 08:59:16;;;;;;;43.15;24.50;;;;;;;1.31;92.12;95990.47;1770359;81;21502;-88
2020/12/31 09:01:46;;;;;;;43.85;26.07;;;;;;;1.31;92.17;95990.47;1770408;80;21146;-88
2020/12/31 09:04:19;;;;;;;51.73;28.77;;;;;;;1.34;92.20;95993.40;1770457;80;21167;-89
2020/12/31 09:06:52;;;;;;;52.38;28.02;;;;;;;1.43;92.32;95988.59;1770283;81;21166;-89
2020/12/31 09:09:28;;;;;;;46.98;26.68;;;;;;;1.52;92.36;95985.86;1770420;81;21315;-88
2020/12/31 09:12:04;;;;;;;47.80;27.17;;;;;;;1.61;92.37;95983.66;1770440;80;21131;-89
2020/12/31 09:14:35;;;;;;;43.98;24.45;;;;;;;1.68;92.30;95976.45;1770551;80;21262;-88
2020/12/31 09:17:22;;;;;;;47.13;25.12;;;;;;;1.76;92.30;95985.21;1770555;80;21273;-89
2020/12/31 09:19:54;;;;;;;42.27;22.65;;;;;;;1.82;92.20;95977.72;1770991;79;21659;-89
2020/12/31 09:22:24;;;;;;;39.45;22.50;;;;;;;1.71;92.09;95978.09;1770747;80;21143;-89
2020/12/31 09:24:52;;;;;;;40.40;22.87;;;;;;;1.62;92.23;95975.59;1770570;80;21277;-89
2020/12/31 09:27:28;;;;;;;42.95;23.60;;;;;;;1.54;92.24;95975.96;1770476;80;21277;-89
2020/12/31 09:29:58;;;;;;;43.35;25.82;;;;;;;1.51;92.28;95976.44;1770379;80;21253;-89
2020/12/31 09:32:26;;;;;;;46.33;26.27;;;;;;;1.48;92.37;95968.57;1770677;81;21285;-88
2020/12/31 09:34:54;;;;;;;47.13;25.43;;;;;;;1.50;92.42;95967.02;1770554;80;21285;-89
2020/12/31 09:37:21;;;;;;;39.67;22.58;;;;;;;1.56;92.50;95966.09;1770483;81;21277;-89
2020/12/31 09:39:48;;;;;;;43.35;24.95;;;;;;;1.57;92.52;95960.36;1770469;80;21668;-88
2020/12/31 09:42:16;;;;;;;38.17;22.22;;;;;;;1.60;92.56;95957.27;1770539;80;21665;-89
2020/12/31 09:44:44;;;;;;;41.80;23.18;;;;;;;1.63;92.49;95951.05;1770466;80;21297;-89
2020/12/31 09:47:11;;;;;;;37.70;21.70;;;;;;;1.65;92.46;95956.03;1770490;80;21633;-89
2020/12/31 09:49:38;;;;;;;39.53;23.30;;;;;;;1.66;92.34;95952.38;1770833;79;21250;-89
2020/12/31 09:52:05;;;;;;;48.08;25.37;;;;;;;1.69;92.43;95947.50;1770420;81;21506;-89
2020/12/31 09:54:32;;;;;;;43.95;25.65;;;;;;;1.78;92.47;95946.05;1770440;81;21272;-89
2020/12/31 09:56:59;;;;;;;40.28;22.73;;;;;;;1.91;92.35;95951.98;1770393;80;21264;-89
2020/12/31 09:59:27;;;;;;;49.73;27.30;;;;;;;1.95;92.24;95953.87;1770352;80;21269;-89
2020/12/31 10:01:54;;;;;;;44.58;26.07;;;;;;;2.00;92.14;95950.56;1770628;80;21277;-89
2020/12/31 10:04:21;;;;;;;46.77;25.23;;;;;;;2.15;92.27;95945.54;1770504;80;21305;-89
2020/12/31 10:06:48;;;;;;;38.40;22.27;;;;;;;2.36;92.39;95944.77;1770541;81;21281;-89
2020/12/31 10:09:16;;;;;;;47.90;24.25;;;;;;;2.43;91.99;95948.52;1770541;81;21318;-89
2020/12/31 10:11:48;;;;;;;41.53;24.20;;;;;;;2.36;91.71;95947.38;1770460;80;21107;-89
2020/12/31 10:14:17;;;;;;;40.23;23.15;;;;;;;2.29;91.44;95949.39;1770593;81;21538;-89
2020/12/31 10:16:44;;;;;;;40.15;23.42;;;;;;;2.28;91.38;95946.50;1770174;80;21610;-89
2020/12/31 10:19:11;;;;;;;39.90;21.93;;;;;;;2.33;91.17;95942.64;1771022;79;21621;-89
2020/12/31 10:21:39;;;;;;;38.40;22.60;;;;;;;2.26;90.87;95939.42;1770361;80;21123;-89
2020/12/31 10:24:06;;;;;;;39.20;20.88;;;;;;;2.22;90.69;95934.89;1770570;80;21257;-89
2020/12/31 10:26:33;;;;;;;40.08;22.37;;;;;;;2.22;90.63;95932.28;1770333;80;21122;-89
2020/12/31 10:29:01;;;;;;;41.25;22.22;;;;;;;2.29;90.67;95930.30;1770534;80;21284;-89
2020/12/31 10:31:28;;;;;;;41.75;22.85;;;;;;;2.47;90.81;95940.97;1770335;81;21511;-89
2020/12/31 10:33:55;;;;;;;40.85;22.95;;;;;;;2.67;90.91;95934.17;1770666;81;21296;-90
2020/12/31 10:36:22;;;;;;;39.27;25.20;;;;;;;2.79;90.75;95935.33;1770376;80;21159;-89
2020/12/31 10:38:50;;;;;;;41.25;23.62;;;;;;;2.86;90.51;95935.16;1770344;80;21153;-90
2020/12/31 10:41:17;;;;;;;40.17;23.00;;;;;;;2.86;90.22;95933.33;1770331;80;21103;-90
2020/12/31 10:43:43;;;;;;;41.28;22.32;;;;;;;2.83;89.92;95930.41;1770374;80;21159;-89
2020/12/31 10:46:10;;;;;;;36.98;21.45;;;;;;;2.80;89.74;95924.34;1770378;81;21131;-90
2020/12/31 10:48:41;;;;;;;39.40;23.27;;;;;;;2.82;89.68;95927.52;1770665;80;21135;-89
2020/12/31 10:51:08;;;;;;;37.48;22.60;;;;;;;2.95;89.85;95919.26;1770873;79;21463;-90
2020/12/31 10:53:35;;;;;;;40.08;22.90;;;;;;;3.10;89.79;95910.80;1770389;80;21158;-90
2020/12/31 10:56:02;;;;;;;35.83;22.90;;;;;;;3.24;89.80;95913.28;1770300;80;21136;-89
2020/12/31 10:58:29;;;;;;;41.13;23.67;;;;;;;3.34;89.64;95909.42;1770412;80;21281;-89
2020/12/31 11:00:56;;;;;;;41.37;23.87;;;;;;;3.30;89.28;95906.25;1770478;80;21280;-90
2020/12/31 11:03:23;;;;;;;44.05;25.37;;;;;;;3.36;89.26;95905.23;1770440;80;21163;-90
2020/12/31 11:05:50;;;;;;;43.40;23.70;;;;;;;3.43;89.19;95897.45;1770422;80;21135;-90
2020/12/31 11:08:17;;;;;;;44.53;24.98;;;;;;;3.50;89.06;95894.09;1770281;80;21187;-90
2020/12/31 11:10:44;;;;;;;81.05;51.05;;;;;;;3.36;88.58;95899.48;1770373;80;21147;-90
2020/12/31 11:13:11;;;;;;;49.00;27.20;;;;;;;3.21;88.33;95892.28;1770544;81;21277;-90
2020/12/31 11:15:38;;;;;;;56.02;34.15;;;;;;;3.13;88.40;95890.66;1770641;80;21305;-90
2020/12/31 11:18:05;;;;;;;46.10;28.92;;;;;;;3.04;88.32;95891.61;1770279;80;21158;-90
2020/12/31 11:20:33;;;;;;;41.55;25.62;;;;;;;2.95;88.31;95895.18;1770874;79;21130;-90
2020/12/31 11:23:00;;;;;;;46.68;26.40;;;;;;;2.85;88.42;95889.86;1770347;81;21130;-90
2020/12/31 11:25:27;;;;;;;49.05;25.92;;;;;;;2.76;88.55;95883.48;1770312;80;21100;-90
2020/12/31 11:27:54;;;;;;;41.18;25.82;;;;;;;2.70;88.74;95886.30;1770497;81;21266;-90
2020/12/31 11:30:21;;;;;;;49.03;27.07;;;;;;;2.60;88.76;95890.38;1770525;80;21135;-89
2020/12/31 11:32:49;;;;;;;54.18;29.75;;;;;;;2.53;88.92;95888.97;1770311;80;21447;-90
2020/12/31 11:35:16;;;;;;;43.10;25.37;;;;;;;2.44;88.94;95877.37;1770370;80;21143;-90
2020/12/31 11:37:43;;;;;;;47.05;27.67;;;;;;;2.38;89.00;95878.61;1770442;80;21138;-89